sensor_id;sensor_type;location;lat;lon;timestamp;temperature;humidity
53599;DHT22;39485;45.702;11.364;2022-12-29T00:02:11;6.60;99.90
53599;DHT22;39485;45.702;11.364;2022-12-29T00:04:37;6.60;99.90
53599;DHT22;39485;45.702;11.364;2022-12-29T00:07:03;6.60;99.90
53599;DHT22;39485;45.702;11.364;2022-12-29T00:09:32;6.60;99.90
53599;DHT22;39485;45.702;11.364;2022-12-29T00:11:59;6.60;99.90
53599;DHT22;39485;45.702;11.364;2022-12-29T00:14:25;6.60;99.90
53599;DHT22;39485;45.702;11.364;2022-12-29T00:17:09;6.60;99.90
53599;DHT22;39485;45.702;11.364;2022-12-29T00:19:35;6.60;99.90
53599;DHT22;39485;45.702;11.364;2022-12-29T00:22:19;6.60;99.90
53599;DHT22;39485;45.702;11.364;2022-12-29T00:25:03;6.60;99.90
53599;DHT22;39485;45.702;11.364;2022-12-29T00:27:48;6.70;99.90
53599;DHT22;39485;45.702;11.364;2022-12-29T00:30:32;6.70;99.90
53599;DHT22;39485;45.702;11.364;2022-12-29T00:33:18;6.70;99.90
53599;DHT22;39485;45.702;11.364;2022-12-29T00:36:28;6.70;99.90
53599;DHT22;39485;45.702;11.364;2022-12-29T00:39:06;6.70;99.90
53599;DHT22;39485;45.702;11.364;2022-12-29T00:41:51;6.60;99.90
53599;DHT22;39485;45.702;11.364;2022-12-29T00:44:35;6.60;99.90
53599;DHT22;39485;45.702;11.364;2022-12-29T00:47:01;6.60;99.90
53599;DHT22;39485;45.702;11.364;2022-12-29T00:49:30;6.60;99.90
53599;DHT22;39485;45.702;11.364;2022-12-29T00:51:58;6.60;99.90
53599;DHT22;39485;45.702;11.364;2022-12-29T00:54:24;6.60;99.90
53599;DHT22;39485;45.702;11.364;2022-12-29T00:56:51;6.60;99.90
53599;DHT22;39485;45.702;11.364;2022-12-29T00:59:18;6.60;99.90
53599;DHT22;39485;45.702;11.364;2022-12-29T01:01:44;6.60;99.90
53599;DHT22;39485;45.702;11.364;2022-12-29T01:04:10;6.60;99.90
53599;DHT22;39485;45.702;11.364;2022-12-29T01:06:37;6.60;99.90
53599;DHT22;39485;45.702;11.364;2022-12-29T01:09:04;6.60;99.90
53599;DHT22;39485;45.702;11.364;2022-12-29T01:11:49;6.60;99.90
53599;DHT22;39485;45.702;11.364;2022-12-29T01:14:15;6.60;99.90
53599;DHT22;39485;45.702;11.364;2022-12-29T01:16:41;6.60;99.90
53599;DHT22;39485;45.702;11.364;2022-12-29T01:19:06;6.60;99.90
53599;DHT22;39485;45.702;11.364;2022-12-29T01:21:33;6.60;99.90
53599;DHT22;39485;45.702;11.364;2022-12-29T01:23:58;6.60;99.90
53599;DHT22;39485;45.702;11.364;2022-12-29T01:26:24;6.60;99.90
53599;DHT22;39485;45.702;11.364;2022-12-29T01:28:50;6.60;99.90
53599;DHT22;39485;45.702;11.364;2022-12-29T01:31:16;6.70;99.90
53599;DHT22;39485;45.702;11.364;2022-12-29T01:33:42;6.70;99.90
53599;DHT22;39485;45.702;11.364;2022-12-29T01:36:10;6.60;99.90
53599;DHT22;39485;45.702;11.364;2022-12-29T01:38:37;6.70;99.90
53599;DHT22;39485;45.702;11.364;2022-12-29T01:41:04;6.70;99.90
53599;DHT22;39485;45.702;11.364;2022-12-29T01:43:51;6.60;99.90
53599;DHT22;39485;45.702;11.364;2022-12-29T01:52:04;6.60;99.90
53599;DHT22;39485;45.702;11.364;2022-12-29T01:57:04;6.70;99.90
53599;DHT22;39485;45.702;11.364;2022-12-29T02:02:12;6.70;99.90
53599;DHT22;39485;45.702;11.364;2022-12-29T02:04:40;6.60;99.90
53599;DHT22;39485;45.702;11.364;2022-12-29T02:07:15;6.60;99.90
53599;DHT22;39485;45.702;11.364;2022-12-29T02:09:42;6.70;99.90
53599;DHT22;39485;45.702;11.364;2022-12-29T02:12:09;6.60;99.90
53599;DHT22;39485;45.702;11.364;2022-12-29T02:14:35;6.60;99.90
53599;DHT22;39485;45.702;11.364;2022-12-29T02:19:43;6.60;99.90
53599;DHT22;39485;45.702;11.364;2022-12-29T02:22:34;6.70;99.90
53599;DHT22;39485;45.702;11.364;2022-12-29T02:34:17;6.60;99.90
53599;DHT22;39485;45.702;11.364;2022-12-29T02:37:06;6.60;99.90
53599;DHT22;39485;45.702;11.364;2022-12-29T02:39:47;6.60;99.90
53599;DHT22;39485;45.702;11.364;2022-12-29T02:42:36;6.60;99.90
53599;DHT22;39485;45.702;11.364;2022-12-29T02:53:19;6.60;99.90
53599;DHT22;39485;45.702;11.364;2022-12-29T02:55:26;6.60;99.90
53599;DHT22;39485;45.702;11.364;2022-12-29T02:58:20;6.60;99.90
53599;DHT22;39485;45.702;11.364;2022-12-29T03:11:15;6.70;99.90
53599;DHT22;39485;45.702;11.364;2022-12-29T03:14:24;6.70;99.90
53599;DHT22;39485;45.702;11.364;2022-12-29T03:17:29;6.70;99.90
53599;DHT22;39485;45.702;11.364;2022-12-29T03:20:04;6.70;99.90
53599;DHT22;39485;45.702;11.364;2022-12-29T03:22:34;6.70;99.90
53599;DHT22;39485;45.702;11.364;2022-12-29T03:25:15;6.70;99.90
53599;DHT22;39485;45.702;11.364;2022-12-29T03:27:50;6.70;99.90
53599;DHT22;39485;45.702;11.364;2022-12-29T03:30:17;6.70;99.90
53599;DHT22;39485;45.702;11.364;2022-12-29T03:32:53;6.70;99.90
53599;DHT22;39485;45.702;11.364;2022-12-29T03:35:22;6.70;99.90
53599;DHT22;39485;45.702;11.364;2022-12-29T03:37:59;6.80;99.90
53599;DHT22;39485;45.702;11.364;2022-12-29T03:40:29;6.80;99.90
53599;DHT22;39485;45.702;11.364;2022-12-29T03:42:57;6.80;99.90
53599;DHT22;39485;45.702;11.364;2022-12-29T03:45:23;6.80;99.90
53599;DHT22;39485;45.702;11.364;2022-12-29T03:47:49;6.80;99.90
53599;DHT22;39485;45.702;11.364;2022-12-29T03:50:14;6.80;99.90
53599;DHT22;39485;45.702;11.364;2022-12-29T03:52:40;6.80;99.90
53599;DHT22;39485;45.702;11.364;2022-12-29T03:55:06;6.80;99.90
53599;DHT22;39485;45.702;11.364;2022-12-29T03:57:32;6.80;99.90
53599;DHT22;39485;45.702;11.364;2022-12-29T03:59:57;6.80;99.90
53599;DHT22;39485;45.702;11.364;2022-12-29T04:02:23;6.80;99.90
53599;DHT22;39485;45.702;11.364;2022-12-29T04:04:49;6.90;99.90
53599;DHT22;39485;45.702;11.364;2022-12-29T04:07:15;6.90;99.90
53599;DHT22;39485;45.702;11.364;2022-12-29T04:09:40;6.90;99.90
53599;DHT22;39485;45.702;11.364;2022-12-29T04:12:06;6.90;99.90
53599;DHT22;39485;45.702;11.364;2022-12-29T04:14:32;6.90;99.90
53599;DHT22;39485;45.702;11.364;2022-12-29T04:16:57;6.90;99.90
53599;DHT22;39485;45.702;11.364;2022-12-29T04:19:23;6.90;99.90
53599;DHT22;39485;45.702;11.364;2022-12-29T04:21:49;6.90;99.90
53599;DHT22;39485;45.702;11.364;2022-12-29T04:24:14;7.00;99.90
53599;DHT22;39485;45.702;11.364;2022-12-29T04:26:40;6.90;99.90
53599;DHT22;39485;45.702;11.364;2022-12-29T04:29:07;6.90;99.90
53599;DHT22;39485;45.702;11.364;2022-12-29T04:31:32;6.90;99.90
53599;DHT22;39485;45.702;11.364;2022-12-29T04:33:58;6.90;99.90
53599;DHT22;39485;45.702;11.364;2022-12-29T04:36:25;6.90;99.90
53599;DHT22;39485;45.702;11.364;2022-12-29T04:38:51;7.00;99.90
53599;DHT22;39485;45.702;11.364;2022-12-29T04:41:16;6.90;99.90
53599;DHT22;39485;45.702;11.364;2022-12-29T04:43:42;6.90;99.90
53599;DHT22;39485;45.702;11.364;2022-12-29T04:46:08;6.90;99.90
53599;DHT22;39485;45.702;11.364;2022-12-29T04:48:33;6.90;99.90
53599;DHT22;39485;45.702;11.364;2022-12-29T04:50:59;6.90;99.90
53599;DHT22;39485;45.702;11.364;2022-12-29T04:53:24;7.00;99.90
53599;DHT22;39485;45.702;11.364;2022-12-29T04:55:51;6.90;99.90
53599;DHT22;39485;45.702;11.364;2022-12-29T04:58:21;6.90;99.90
53599;DHT22;39485;45.702;11.364;2022-12-29T05:00:47;6.90;99.90
53599;DHT22;39485;45.702;11.364;2022-12-29T05:03:12;6.90;99.90
53599;DHT22;39485;45.702;11.364;2022-12-29T05:05:38;6.90;99.90
53599;DHT22;39485;45.702;11.364;2022-12-29T05:08:04;6.90;99.90
53599;DHT22;39485;45.702;11.364;2022-12-29T05:10:30;6.90;99.90
53599;DHT22;39485;45.702;11.364;2022-12-29T05:12:55;6.90;99.90
53599;DHT22;39485;45.702;11.364;2022-12-29T05:15:21;6.90;99.90
53599;DHT22;39485;45.702;11.364;2022-12-29T05:17:47;6.90;99.90
53599;DHT22;39485;45.702;11.364;2022-12-29T05:20:12;6.90;99.90
53599;DHT22;39485;45.702;11.364;2022-12-29T05:22:38;6.90;99.90
53599;DHT22;39485;45.702;11.364;2022-12-29T05:25:04;6.90;99.90
53599;DHT22;39485;45.702;11.364;2022-12-29T05:27:30;6.90;99.90
53599;DHT22;39485;45.702;11.364;2022-12-29T05:29:56;6.90;99.90
53599;DHT22;39485;45.702;11.364;2022-12-29T05:32:21;6.90;99.90
53599;DHT22;39485;45.702;11.364;2022-12-29T05:34:47;6.90;99.90
53599;DHT22;39485;45.702;11.364;2022-12-29T05:37:12;6.90;99.90
53599;DHT22;39485;45.702;11.364;2022-12-29T05:39:39;6.90;99.90
53599;DHT22;39485;45.702;11.364;2022-12-29T05:42:04;6.90;99.90
53599;DHT22;39485;45.702;11.364;2022-12-29T05:44:30;6.90;99.90
53599;DHT22;39485;45.702;11.364;2022-12-29T05:46:56;6.90;99.90
53599;DHT22;39485;45.702;11.364;2022-12-29T05:49:21;6.90;99.90
53599;DHT22;39485;45.702;11.364;2022-12-29T05:51:47;6.80;99.90
53599;DHT22;39485;45.702;11.364;2022-12-29T05:54:13;6.80;99.90
53599;DHT22;39485;45.702;11.364;2022-12-29T05:56:39;6.90;99.90
53599;DHT22;39485;45.702;11.364;2022-12-29T05:59:04;6.90;99.90
53599;DHT22;39485;45.702;11.364;2022-12-29T06:01:30;6.90;99.90
53599;DHT22;39485;45.702;11.364;2022-12-29T06:03:55;6.90;99.90
53599;DHT22;39485;45.702;11.364;2022-12-29T06:06:21;6.90;99.90
53599;DHT22;39485;45.702;11.364;2022-12-29T06:08:47;6.90;99.90
53599;DHT22;39485;45.702;11.364;2022-12-29T06:11:12;6.90;99.90
53599;DHT22;39485;45.702;11.364;2022-12-29T06:13:38;6.90;99.90
53599;DHT22;39485;45.702;11.364;2022-12-29T06:16:04;6.90;99.90
53599;DHT22;39485;45.702;11.364;2022-12-29T06:18:30;6.90;99.90
53599;DHT22;39485;45.702;11.364;2022-12-29T06:21:00;6.90;99.90
53599;DHT22;39485;45.702;11.364;2022-12-29T06:23:26;6.90;99.90
53599;DHT22;39485;45.702;11.364;2022-12-29T06:25:52;6.80;99.90
53599;DHT22;39485;45.702;11.364;2022-12-29T06:28:18;6.90;99.90
53599;DHT22;39485;45.702;11.364;2022-12-29T06:30:45;6.90;99.90
53599;DHT22;39485;45.702;11.364;2022-12-29T06:33:11;6.90;99.90
53599;DHT22;39485;45.702;11.364;2022-12-29T06:35:37;6.80;99.90
53599;DHT22;39485;45.702;11.364;2022-12-29T06:38:02;6.80;99.90
53599;DHT22;39485;45.702;11.364;2022-12-29T06:40:28;6.80;99.90
53599;DHT22;39485;45.702;11.364;2022-12-29T06:42:54;6.80;99.90
53599;DHT22;39485;45.702;11.364;2022-12-29T06:45:19;6.80;99.90
53599;DHT22;39485;45.702;11.364;2022-12-29T06:47:45;6.80;99.90
53599;DHT22;39485;45.702;11.364;2022-12-29T06:50:11;6.80;99.90
53599;DHT22;39485;45.702;11.364;2022-12-29T06:52:36;6.80;99.90
53599;DHT22;39485;45.702;11.364;2022-12-29T06:55:02;6.80;99.90
53599;DHT22;39485;45.702;11.364;2022-12-29T06:57:28;6.80;99.90
53599;DHT22;39485;45.702;11.364;2022-12-29T06:59:54;6.80;99.90
53599;DHT22;39485;45.702;11.364;2022-12-29T07:02:22;6.80;99.90
53599;DHT22;39485;45.702;11.364;2022-12-29T07:04:51;6.80;99.90
53599;DHT22;39485;45.702;11.364;2022-12-29T07:07:20;6.80;99.90
53599;DHT22;39485;45.702;11.364;2022-12-29T07:09:46;6.80;99.90
53599;DHT22;39485;45.702;11.364;2022-12-29T07:12:12;6.80;99.90
53599;DHT22;39485;45.702;11.364;2022-12-29T07:14:38;6.80;99.90
53599;DHT22;39485;45.702;11.364;2022-12-29T07:17:05;6.80;99.90
53599;DHT22;39485;45.702;11.364;2022-12-29T07:19:32;6.80;99.90
53599;DHT22;39485;45.702;11.364;2022-12-29T07:21:58;6.80;99.90
53599;DHT22;39485;45.702;11.364;2022-12-29T07:24:23;6.80;99.90
53599;DHT22;39485;45.702;11.364;2022-12-29T07:26:51;6.70;99.90
53599;DHT22;39485;45.702;11.364;2022-12-29T07:29:17;6.70;99.90
53599;DHT22;39485;45.702;11.364;2022-12-29T07:31:43;6.70;99.90
53599;DHT22;39485;45.702;11.364;2022-12-29T07:34:09;6.60;99.90
53599;DHT22;39485;45.702;11.364;2022-12-29T07:36:35;6.60;99.90
53599;DHT22;39485;45.702;11.364;2022-12-29T07:39:01;6.60;99.90
53599;DHT22;39485;45.702;11.364;2022-12-29T07:41:27;6.60;99.90
53599;DHT22;39485;45.702;11.364;2022-12-29T07:43:52;6.70;99.90
53599;DHT22;39485;45.702;11.364;2022-12-29T07:46:18;6.70;99.90
53599;DHT22;39485;45.702;11.364;2022-12-29T07:48:44;6.70;99.90
53599;DHT22;39485;45.702;11.364;2022-12-29T07:51:09;6.60;99.90
53599;DHT22;39485;45.702;11.364;2022-12-29T07:53:35;6.60;99.90
53599;DHT22;39485;45.702;11.364;2022-12-29T07:56:01;6.70;99.90
53599;DHT22;39485;45.702;11.364;2022-12-29T07:58:26;6.70;99.90
53599;DHT22;39485;45.702;11.364;2022-12-29T08:00:54;6.70;99.90
53599;DHT22;39485;45.702;11.364;2022-12-29T08:03:20;6.80;99.90
53599;DHT22;39485;45.702;11.364;2022-12-29T08:05:46;6.80;99.90
53599;DHT22;39485;45.702;11.364;2022-12-29T08:08:11;6.80;99.90
53599;DHT22;39485;45.702;11.364;2022-12-29T08:10:37;6.80;99.90
53599;DHT22;39485;45.702;11.364;2022-12-29T08:13:03;6.80;99.90
53599;DHT22;39485;45.702;11.364;2022-12-29T08:15:28;6.90;99.90
53599;DHT22;39485;45.702;11.364;2022-12-29T08:17:54;6.90;99.90
53599;DHT22;39485;45.702;11.364;2022-12-29T08:20:20;6.90;99.90
53599;DHT22;39485;45.702;11.364;2022-12-29T08:22:45;7.00;99.90
53599;DHT22;39485;45.702;11.364;2022-12-29T08:25:11;7.00;99.90
53599;DHT22;39485;45.702;11.364;2022-12-29T08:27:36;7.00;99.90
53599;DHT22;39485;45.702;11.364;2022-12-29T08:30:03;7.10;99.90
53599;DHT22;39485;45.702;11.364;2022-12-29T08:32:28;7.10;99.90
53599;DHT22;39485;45.702;11.364;2022-12-29T08:34:54;7.20;99.90
53599;DHT22;39485;45.702;11.364;2022-12-29T08:37:20;7.20;99.90
53599;DHT22;39485;45.702;11.364;2022-12-29T08:39:46;7.30;99.90
53599;DHT22;39485;45.702;11.364;2022-12-29T08:42:11;7.30;99.90
53599;DHT22;39485;45.702;11.364;2022-12-29T08:44:37;7.40;99.90
53599;DHT22;39485;45.702;11.364;2022-12-29T08:47:03;7.40;99.90
53599;DHT22;39485;45.702;11.364;2022-12-29T08:49:28;7.40;99.90
53599;DHT22;39485;45.702;11.364;2022-12-29T08:51:54;7.50;99.90
53599;DHT22;39485;45.702;11.364;2022-12-29T08:54:19;7.50;99.90
53599;DHT22;39485;45.702;11.364;2022-12-29T08:56:45;7.50;99.90
53599;DHT22;39485;45.702;11.364;2022-12-29T08:59:11;7.50;99.90
53599;DHT22;39485;45.702;11.364;2022-12-29T09:01:36;7.60;99.90
53599;DHT22;39485;45.702;11.364;2022-12-29T09:04:06;7.60;99.90
53599;DHT22;39485;45.702;11.364;2022-12-29T09:06:32;7.60;99.90
53599;DHT22;39485;45.702;11.364;2022-12-29T09:08:57;7.60;99.90
53599;DHT22;39485;45.702;11.364;2022-12-29T09:11:24;7.70;99.90
53599;DHT22;39485;45.702;11.364;2022-12-29T09:13:51;7.70;99.90
53599;DHT22;39485;45.702;11.364;2022-12-29T09:16:17;7.70;99.90
53599;DHT22;39485;45.702;11.364;2022-12-29T09:18:44;7.70;99.90
53599;DHT22;39485;45.702;11.364;2022-12-29T09:21:11;7.70;99.90
53599;DHT22;39485;45.702;11.364;2022-12-29T09:23:37;7.60;99.90
53599;DHT22;39485;45.702;11.364;2022-12-29T09:26:03;7.70;99.90
53599;DHT22;39485;45.702;11.364;2022-12-29T09:28:30;7.70;99.90
53599;DHT22;39485;45.702;11.364;2022-12-29T09:30:57;7.70;99.90
53599;DHT22;39485;45.702;11.364;2022-12-29T09:33:23;7.70;99.90
53599;DHT22;39485;45.702;11.364;2022-12-29T09:35:56;7.70;99.90
53599;DHT22;39485;45.702;11.364;2022-12-29T09:38:23;7.70;99.90
53599;DHT22;39485;45.702;11.364;2022-12-29T09:40:51;7.70;99.90
53599;DHT22;39485;45.702;11.364;2022-12-29T09:43:24;7.60;99.90
53599;DHT22;39485;45.702;11.364;2022-12-29T09:48:43;7.70;99.90
53599;DHT22;39485;45.702;11.364;2022-12-29T09:51:16;7.70;99.90
53599;DHT22;39485;45.702;11.364;2022-12-29T09:53:55;7.70;99.90
53599;DHT22;39485;45.702;11.364;2022-12-29T09:56:24;7.80;99.90
53599;DHT22;39485;45.702;11.364;2022-12-29T09:59:02;7.80;99.90
53599;DHT22;39485;45.702;11.364;2022-12-29T10:01:31;7.80;99.90
53599;DHT22;39485;45.702;11.364;2022-12-29T10:03:59;7.80;99.90
53599;DHT22;39485;45.702;11.364;2022-12-29T10:09:17;7.90;99.90
53599;DHT22;39485;45.702;11.364;2022-12-29T10:12:01;7.90;99.90
53599;DHT22;39485;45.702;11.364;2022-12-29T10:14:53;7.90;99.90
53599;DHT22;39485;45.702;11.364;2022-12-29T10:23:19;8.10;99.90
53599;DHT22;39485;45.702;11.364;2022-12-29T10:25:47;8.10;99.90
53599;DHT22;39485;45.702;11.364;2022-12-29T10:31:06;8.20;99.90
53599;DHT22;39485;45.702;11.364;2022-12-29T10:33:40;8.20;99.90
53599;DHT22;39485;45.702;11.364;2022-12-29T10:36:38;8.30;99.90
53599;DHT22;39485;45.702;11.364;2022-12-29T10:39:26;8.30;99.90
53599;DHT22;39485;45.702;11.364;2022-12-29T10:42:27;8.30;99.90
53599;DHT22;39485;45.702;11.364;2022-12-29T10:44:54;8.40;99.90
53599;DHT22;39485;45.702;11.364;2022-12-29T10:47:28;8.40;99.90
53599;DHT22;39485;45.702;11.364;2022-12-29T10:49:54;8.30;99.90
53599;DHT22;39485;45.702;11.364;2022-12-29T10:52:22;8.40;99.90
53599;DHT22;39485;45.702;11.364;2022-12-29T10:55:02;8.40;99.90
53599;DHT22;39485;45.702;11.364;2022-12-29T10:57:35;8.40;99.90
53599;DHT22;39485;45.702;11.364;2022-12-29T11:00:08;8.40;99.90
53599;DHT22;39485;45.702;11.364;2022-12-29T11:02:51;8.40;99.90
53599;DHT22;39485;45.702;11.364;2022-12-29T11:08:08;8.40;99.90
53599;DHT22;39485;45.702;11.364;2022-12-29T11:10:41;8.50;99.90
53599;DHT22;39485;45.702;11.364;2022-12-29T11:13:17;8.50;99.90
53599;DHT22;39485;45.702;11.364;2022-12-29T11:15:45;8.50;99.90
53599;DHT22;39485;45.702;11.364;2022-12-29T11:18:30;8.60;99.90
53599;DHT22;39485;45.702;11.364;2022-12-29T11:21:02;8.60;99.90
53599;DHT22;39485;45.702;11.364;2022-12-29T11:23:39;8.60;99.90
53599;DHT22;39485;45.702;11.364;2022-12-29T11:28:42;8.60;99.90
53599;DHT22;39485;45.702;11.364;2022-12-29T11:31:09;8.70;99.90
53599;DHT22;39485;45.702;11.364;2022-12-29T11:33:36;8.70;99.90
53599;DHT22;39485;45.702;11.364;2022-12-29T11:36:15;8.80;99.90
53599;DHT22;39485;45.702;11.364;2022-12-29T11:38:52;8.80;99.90
53599;DHT22;39485;45.702;11.364;2022-12-29T11:41:30;8.90;99.90
53599;DHT22;39485;45.702;11.364;2022-12-29T11:43:59;8.90;99.90
53599;DHT22;39485;45.702;11.364;2022-12-29T11:46:32;9.00;99.90
53599;DHT22;39485;45.702;11.364;2022-12-29T11:48:59;9.00;99.90
53599;DHT22;39485;45.702;11.364;2022-12-29T11:51:58;9.10;99.90
53599;DHT22;39485;45.702;11.364;2022-12-29T11:54:33;9.20;99.90
53599;DHT22;39485;45.702;11.364;2022-12-29T11:57:11;9.20;99.90
53599;DHT22;39485;45.702;11.364;2022-12-29T11:59:41;9.20;99.90
53599;DHT22;39485;45.702;11.364;2022-12-29T12:04:56;9.20;99.90
53599;DHT22;39485;45.702;11.364;2022-12-29T12:07:42;9.30;99.90
53599;DHT22;39485;45.702;11.364;2022-12-29T12:10:21;9.30;99.90
53599;DHT22;39485;45.702;11.364;2022-12-29T12:13:08;9.30;99.90
53599;DHT22;39485;45.702;11.364;2022-12-29T12:15:42;9.40;99.90
53599;DHT22;39485;45.702;11.364;2022-12-29T12:18:10;9.40;99.90
53599;DHT22;39485;45.702;11.364;2022-12-29T12:20:57;9.50;99.90
53599;DHT22;39485;45.702;11.364;2022-12-29T12:28:53;9.60;99.90
53599;DHT22;39485;45.702;11.364;2022-12-29T12:31:47;9.60;99.90
53599;DHT22;39485;45.702;11.364;2022-12-29T12:34:27;9.60;99.90
53599;DHT22;39485;45.702;11.364;2022-12-29T12:37:03;9.60;99.90
53599;DHT22;39485;45.702;11.364;2022-12-29T12:42:41;9.50;99.90
53599;DHT22;39485;45.702;11.364;2022-12-29T12:45:45;9.50;99.90
53599;DHT22;39485;45.702;11.364;2022-12-29T12:56:57;9.40;99.90
53599;DHT22;39485;45.702;11.364;2022-12-29T13:18:42;9.20;99.90
53599;DHT22;39485;45.702;11.364;2022-12-29T13:37:38;9.10;99.90
53599;DHT22;39485;45.702;11.364;2022-12-29T13:40:17;9.10;99.90
53599;DHT22;39485;45.702;11.364;2022-12-29T13:42:44;9.00;99.90
53599;DHT22;39485;45.702;11.364;2022-12-29T13:45:18;9.10;99.90
53599;DHT22;39485;45.702;11.364;2022-12-29T13:47:52;9.00;99.90
53599;DHT22;39485;45.702;11.364;2022-12-29T13:50:22;8.90;99.90
53599;DHT22;39485;45.702;11.364;2022-12-29T14:01:03;8.90;99.90
53599;DHT22;39485;45.702;11.364;2022-12-29T14:03:44;8.90;99.90
53599;DHT22;39485;45.702;11.364;2022-12-29T14:08:56;8.80;99.90
53599;DHT22;39485;45.702;11.364;2022-12-29T14:11:39;8.80;99.90
53599;DHT22;39485;45.702;11.364;2022-12-29T14:14:13;8.80;99.90
53599;DHT22;39485;45.702;11.364;2022-12-29T14:16:39;8.80;99.90
53599;DHT22;39485;45.702;11.364;2022-12-29T14:21:57;8.70;99.90
53599;DHT22;39485;45.702;11.364;2022-12-29T14:29:51;8.70;99.90
53599;DHT22;39485;45.702;11.364;2022-12-29T14:34:55;8.80;99.90
53599;DHT22;39485;45.702;11.364;2022-12-29T14:37:36;8.70;99.90
53599;DHT22;39485;45.702;11.364;2022-12-29T14:40:39;8.70;99.90
53599;DHT22;39485;45.702;11.364;2022-12-29T14:43:12;8.70;99.90
53599;DHT22;39485;45.702;11.364;2022-12-29T14:45:41;8.70;99.90
53599;DHT22;39485;45.702;11.364;2022-12-29T14:48:32;8.70;99.90
53599;DHT22;39485;45.702;11.364;2022-12-29T14:50:58;8.70;99.90
53599;DHT22;39485;45.702;11.364;2022-12-29T14:53:45;8.70;99.90
53599;DHT22;39485;45.702;11.364;2022-12-29T14:56:12;8.70;99.90
53599;DHT22;39485;45.702;11.364;2022-12-29T15:01:51;8.80;99.90
53599;DHT22;39485;45.702;11.364;2022-12-29T15:04:25;8.80;99.90
53599;DHT22;39485;45.702;11.364;2022-12-29T15:06:53;8.80;99.90
53599;DHT22;39485;45.702;11.364;2022-12-29T15:09:36;8.80;99.90
53599;DHT22;39485;45.702;11.364;2022-12-29T15:14:58;8.80;99.90
53599;DHT22;39485;45.702;11.364;2022-12-29T15:19:56;8.70;99.90
53599;DHT22;39485;45.702;11.364;2022-12-29T15:22:23;8.70;99.90
53599;DHT22;39485;45.702;11.364;2022-12-29T15:24:53;8.70;99.90
53599;DHT22;39485;45.702;11.364;2022-12-29T15:27:22;8.70;99.90
53599;DHT22;39485;45.702;11.364;2022-12-29T15:29:58;8.70;99.90
53599;DHT22;39485;45.702;11.364;2022-12-29T15:32:26;8.70;99.90
53599;DHT22;39485;45.702;11.364;2022-12-29T15:34:54;8.60;99.90
53599;DHT22;39485;45.702;11.364;2022-12-29T15:37:32;8.60;99.90
53599;DHT22;39485;45.702;11.364;2022-12-29T15:39:58;8.50;99.90
53599;DHT22;39485;45.702;11.364;2022-12-29T15:42:46;8.50;99.90
53599;DHT22;39485;45.702;11.364;2022-12-29T15:45:14;8.50;99.90
53599;DHT22;39485;45.702;11.364;2022-12-29T15:47:43;8.50;99.90
53599;DHT22;39485;45.702;11.364;2022-12-29T15:52:46;8.50;99.90
53599;DHT22;39485;45.702;11.364;2022-12-29T15:55:33;8.50;99.90
53599;DHT22;39485;45.702;11.364;2022-12-29T15:58:01;8.50;99.90
53599;DHT22;39485;45.702;11.364;2022-12-29T16:00:34;8.50;99.90
53599;DHT22;39485;45.702;11.364;2022-12-29T16:03:04;8.40;99.90
53599;DHT22;39485;45.702;11.364;2022-12-29T16:05:38;8.40;99.90
53599;DHT22;39485;45.702;11.364;2022-12-29T16:08:31;8.40;99.90
53599;DHT22;39485;45.702;11.364;2022-12-29T16:11:03;8.40;99.90
53599;DHT22;39485;45.702;11.364;2022-12-29T16:13:34;8.40;99.90
53599;DHT22;39485;45.702;11.364;2022-12-29T16:16:13;8.40;99.90
53599;DHT22;39485;45.702;11.364;2022-12-29T16:18:41;8.40;99.90
53599;DHT22;39485;45.702;11.364;2022-12-29T16:21:22;8.40;99.90
53599;DHT22;39485;45.702;11.364;2022-12-29T16:23:51;8.40;99.90
53599;DHT22;39485;45.702;11.364;2022-12-29T16:26:19;8.40;99.90
53599;DHT22;39485;45.702;11.364;2022-12-29T16:28:51;8.40;99.90
53599;DHT22;39485;45.702;11.364;2022-12-29T16:31:28;8.30;99.90
53599;DHT22;39485;45.702;11.364;2022-12-29T16:33:58;8.40;99.90
53599;DHT22;39485;45.702;11.364;2022-12-29T16:36:51;8.40;99.90
53599;DHT22;39485;45.702;11.364;2022-12-29T16:41:52;8.40;99.90
53599;DHT22;39485;45.702;11.364;2022-12-29T16:44:28;8.30;99.90
53599;DHT22;39485;45.702;11.364;2022-12-29T16:47:04;8.30;99.90
53599;DHT22;39485;45.702;11.364;2022-12-29T16:50:10;8.30;99.90
53599;DHT22;39485;45.702;11.364;2022-12-29T17:39:16;8.10;99.90
53599;DHT22;39485;45.702;11.364;2022-12-29T17:41:56;8.10;99.90
53599;DHT22;39485;45.702;11.364;2022-12-29T18:08:15;8.10;99.90
53599;DHT22;39485;45.702;11.364;2022-12-29T18:11:02;8.00;99.90
53599;DHT22;39485;45.702;11.364;2022-12-29T18:13:48;8.00;99.90
53599;DHT22;39485;45.702;11.364;2022-12-29T18:33:28;8.10;99.90
53599;DHT22;39485;45.702;11.364;2022-12-29T18:36:15;8.00;99.90
53599;DHT22;39485;45.702;11.364;2022-12-29T18:38:41;8.10;99.90
53599;DHT22;39485;45.702;11.364;2022-12-29T18:41:21;8.00;99.90
53599;DHT22;39485;45.702;11.364;2022-12-29T18:43:49;8.00;99.90
53599;DHT22;39485;45.702;11.364;2022-12-29T18:46:14;8.00;99.90
53599;DHT22;39485;45.702;11.364;2022-12-29T18:48:40;8.00;99.90
53599;DHT22;39485;45.702;11.364;2022-12-29T18:51:17;8.00;99.90
53599;DHT22;39485;45.702;11.364;2022-12-29T18:53:44;8.00;99.90
53599;DHT22;39485;45.702;11.364;2022-12-29T18:56:10;8.00;99.90
53599;DHT22;39485;45.702;11.364;2022-12-29T18:58:36;7.90;99.90
53599;DHT22;39485;45.702;11.364;2022-12-29T19:01:02;7.90;99.90
53599;DHT22;39485;45.702;11.364;2022-12-29T19:03:28;7.90;99.90
53599;DHT22;39485;45.702;11.364;2022-12-29T19:05:54;7.90;99.90
53599;DHT22;39485;45.702;11.364;2022-12-29T19:08:19;7.90;99.90
53599;DHT22;39485;45.702;11.364;2022-12-29T19:10:45;7.90;99.90
53599;DHT22;39485;45.702;11.364;2022-12-29T19:13:16;7.80;99.90
53599;DHT22;39485;45.702;11.364;2022-12-29T19:15:43;7.80;99.90
53599;DHT22;39485;45.702;11.364;2022-12-29T19:18:18;7.80;99.90
53599;DHT22;39485;45.702;11.364;2022-12-29T19:20:45;7.90;99.90
53599;DHT22;39485;45.702;11.364;2022-12-29T19:23:14;7.80;99.90
53599;DHT22;39485;45.702;11.364;2022-12-29T19:25:40;7.90;99.90
53599;DHT22;39485;45.702;11.364;2022-12-29T19:28:08;7.90;99.90
53599;DHT22;39485;45.702;11.364;2022-12-29T19:30:37;7.90;99.90
53599;DHT22;39485;45.702;11.364;2022-12-29T19:33:03;7.90;99.90
53599;DHT22;39485;45.702;11.364;2022-12-29T19:35:29;7.90;99.90
53599;DHT22;39485;45.702;11.364;2022-12-29T19:37:55;7.80;99.90
53599;DHT22;39485;45.702;11.364;2022-12-29T19:40:23;7.80;99.90
53599;DHT22;39485;45.702;11.364;2022-12-29T19:42:49;7.80;99.90
53599;DHT22;39485;45.702;11.364;2022-12-29T19:45:16;7.80;99.90
53599;DHT22;39485;45.702;11.364;2022-12-29T19:47:41;7.80;99.90
53599;DHT22;39485;45.702;11.364;2022-12-29T19:50:09;7.80;99.90
53599;DHT22;39485;45.702;11.364;2022-12-29T19:52:36;7.80;99.90